createdAt,value
2022-08-26T00:00:27.728Z,5.94
2022-08-26T00:02:00.009Z,5.96
2022-08-26T00:03:32.032Z,5.96
2022-08-26T00:05:03.571Z,5.76
2022-08-26T00:06:35.059Z,6.04
2022-08-26T00:08:06.463Z,5.99
2022-08-26T00:09:40.402Z,5.89
2022-08-26T00:11:11.925Z,5.94
2022-08-26T00:12:43.557Z,5.93
2022-08-26T00:14:14.986Z,5.86
2022-08-26T00:15:46.501Z,5.98
2022-08-26T00:17:17.933Z,6.15
2022-08-26T00:18:49.440Z,5.92
2022-08-26T00:20:22.457Z,6.48
2022-08-26T00:21:54.290Z,6.23
2022-08-26T00:23:28.873Z,6.61
2022-08-26T00:25:00.511Z,6.83
2022-08-26T00:26:32.018Z,6.72
2022-08-26T00:28:03.498Z,6.92
2022-08-26T00:29:37.738Z,6.63
2022-08-26T00:31:14.361Z,6.71
2022-08-26T00:32:46.371Z,6.41
2022-08-26T00:34:19.449Z,6.45
2022-08-26T00:35:51.525Z,6.61
2022-08-26T00:37:23.215Z,7.45
2022-08-26T00:38:56.538Z,6.74
2022-08-26T00:40:28.140Z,6.40
2022-08-26T00:41:59.775Z,6.58
2022-08-26T00:43:31.209Z,6.54
2022-08-26T00:45:17.774Z,6.45
2022-08-26T00:46:49.489Z,6.68
2022-08-26T00:48:21.222Z,6.77
2022-08-26T00:49:52.687Z,6.88
2022-08-26T00:51:24.464Z,6.70
2022-08-26T00:53:01.582Z,6.38
2022-08-26T00:54:33.167Z,6.86
2022-08-26T00:56:04.822Z,7.01
2022-08-26T00:57:36.836Z,7.07
2022-08-26T00:59:08.221Z,7.48
2022-08-26T01:00:39.922Z,7.23
2022-08-26T01:02:20.745Z,7.09
2022-08-26T01:03:53.537Z,7.00
2022-08-26T01:05:26.910Z,7.19
2022-08-26T01:06:58.323Z,7.23
2022-08-26T01:08:29.899Z,6.92
2022-08-26T01:10:01.460Z,7.12
2022-08-26T01:11:32.890Z,6.80
2022-08-26T01:13:04.489Z,6.74
2022-08-26T01:14:36.755Z,6.76
2022-08-26T01:16:08.656Z,6.62
2022-08-26T01:17:40.195Z,7.10
2022-08-26T01:19:11.900Z,7.16
2022-08-26T01:20:44.431Z,7.05
2022-08-26T01:22:16.116Z,6.94
2022-08-26T01:23:47.769Z,6.95
2022-08-26T01:25:19.379Z,6.75
2022-08-26T01:26:50.901Z,6.58
2022-08-26T01:28:22.351Z,7.08
2022-08-26T01:29:53.955Z,6.96
2022-08-26T01:31:25.428Z,6.71
2022-08-26T01:32:57.081Z,6.78
2022-08-26T01:34:28.599Z,6.66
2022-08-26T01:36:00.035Z,6.37
2022-08-26T01:37:31.609Z,6.42
2022-08-26T01:39:03.089Z,6.36
2022-08-26T01:40:37.855Z,6.34
2022-08-26T01:42:10.421Z,6.53
2022-08-26T01:43:42.071Z,6.94
2022-08-26T01:45:13.611Z,6.54
2022-08-26T01:46:45.134Z,6.47
2022-08-26T01:48:17.682Z,6.39
2022-08-26T01:49:49.235Z,6.34
2022-08-26T01:51:22.372Z,6.20
2022-08-26T01:52:54.404Z,6.03
2022-08-26T01:54:26.601Z,5.74
2022-08-26T01:55:58.537Z,6.06
2022-08-26T01:57:30.008Z,6.36
2022-08-26T01:59:01.414Z,6.16
2022-08-26T02:00:33.159Z,6.13
2022-08-26T02:02:04.885Z,6.07
2022-08-26T02:03:36.468Z,6.04
2022-08-26T02:05:10.295Z,6.39
2022-08-26T02:06:41.738Z,6.14
2022-08-26T02:08:20.590Z,6.21
2022-08-26T02:09:56.453Z,6.13
2022-08-26T02:11:27.932Z,6.22
2022-08-26T02:12:59.896Z,6.45
2022-08-26T02:14:31.501Z,6.36
2022-08-26T02:16:03.080Z,6.31
2022-08-26T02:17:36.011Z,6.48
2022-08-26T02:19:10.106Z,6.39
2022-08-26T02:20:51.515Z,6.62
2022-08-26T02:22:24.493Z,6.47
2022-08-26T02:23:56.436Z,6.73
2022-08-26T02:25:27.827Z,6.86
2022-08-26T02:26:59.312Z,6.81
2022-08-26T02:28:30.870Z,6.92
2022-08-26T02:30:02.873Z,6.90
2022-08-26T02:31:34.626Z,7.06
2022-08-26T02:33:06.583Z,7.13
2022-08-26T02:34:39.540Z,7.19
2022-08-26T02:36:10.958Z,7.13
2022-08-26T02:37:44.855Z,7.29
2022-08-26T02:39:19.626Z,6.99
2022-08-26T02:40:53.962Z,7.40
2022-08-26T02:42:25.464Z,7.23
2022-08-26T02:43:57.279Z,7.54
2022-08-26T02:45:29.642Z,7.63
2022-08-26T02:47:01.509Z,7.54
2022-08-26T02:48:32.943Z,7.50
2022-08-26T02:50:09.439Z,7.87
2022-08-26T02:51:41.363Z,7.61
2022-08-26T02:53:14.550Z,7.89
2022-08-26T02:54:46.327Z,7.65
2022-08-26T02:56:21.348Z,7.91
2022-08-26T02:57:53.139Z,8.14
2022-08-26T02:59:25.078Z,8.13
2022-08-26T03:00:56.761Z,8.79
2022-08-26T03:02:33.377Z,8.02
2022-08-26T03:04:05.182Z,8.32
2022-08-26T03:05:37.104Z,8.21
2022-08-26T03:07:08.960Z,8.36
2022-08-26T03:08:40.391Z,8.55
2022-08-26T03:10:11.999Z,8.94
2022-08-26T03:11:43.575Z,8.71
2022-08-26T03:13:15.343Z,8.70
2022-08-26T03:14:46.838Z,8.71
2022-08-26T03:16:18.829Z,8.86
2022-08-26T03:17:51.011Z,9.29
2022-08-26T03:19:22.626Z,9.15
2022-08-26T03:20:54.111Z,10.02
2022-08-26T03:22:25.569Z,9.84
2022-08-26T03:23:58.924Z,10.62
2022-08-26T03:25:32.052Z,11.50
2022-08-26T03:27:05.799Z,12.40
2022-08-26T03:28:38.816Z,12.94
2022-08-26T03:30:11.714Z,13.56
2022-08-26T03:31:43.458Z,13.74
2022-08-26T03:33:14.920Z,14.71
2022-08-26T03:34:46.576Z,14.63
2022-08-26T03:36:18.370Z,15.68
2022-08-26T03:37:49.776Z,16.41
2022-08-26T03:39:21.376Z,16.83
2022-08-26T03:40:52.987Z,17.73
2022-08-26T03:42:24.410Z,17.83
2022-08-26T03:43:59.694Z,17.48
2022-08-26T03:45:33.000Z,18.38
2022-08-26T03:47:04.348Z,18.04
2022-08-26T03:48:37.425Z,18.52
2022-08-26T03:50:08.843Z,18.21
2022-08-26T03:51:41.191Z,20.05
2022-08-26T03:53:13.609Z,22.90
2022-08-26T03:54:45.116Z,22.76
2022-08-26T03:56:18.609Z,24.03
2022-08-26T03:57:50.067Z,25.45
2022-08-26T03:59:21.903Z,25.94
2022-08-26T04:00:55.613Z,26.47
2022-08-26T04:02:27.439Z,26.40
2022-08-26T04:04:00.392Z,25.98
2022-08-26T04:05:39.278Z,25.77
2022-08-26T04:07:16.548Z,25.64
2022-08-26T04:08:48.789Z,25.62
2022-08-26T04:10:20.307Z,26.19
2022-08-26T04:14:01.159Z,26.26
2022-08-26T04:15:33.335Z,26.21
2022-08-26T04:17:05.586Z,26.13
2022-08-26T04:18:37.387Z,26.70
2022-08-26T04:20:17.993Z,27.18
2022-08-26T04:21:49.565Z,28.47
2022-08-26T04:23:21.043Z,28.65
2022-08-26T04:24:52.498Z,29.46
2022-08-26T04:26:29.116Z,31.09
2022-08-26T04:28:00.550Z,31.71
2022-08-26T04:29:33.118Z,32.49
2022-08-26T04:31:06.087Z,33.32
2022-08-26T04:34:18.950Z,36.80
2022-08-26T04:38:03.109Z,38.44
2022-08-26T04:39:37.598Z,39.05
2022-08-26T04:41:14.905Z,37.47
2022-08-26T04:42:46.617Z,39.10
2022-08-26T04:44:19.602Z,39.43
2022-08-26T04:45:51.072Z,40.26
2022-08-26T04:47:23.226Z,40.44
2022-08-26T04:48:54.642Z,43.02
2022-08-26T04:50:26.671Z,43.30
2022-08-26T04:51:58.296Z,44.35
2022-08-26T04:53:29.786Z,44.42
2022-08-26T04:55:01.310Z,45.09
2022-08-26T04:56:32.892Z,46.58
2022-08-26T04:58:04.915Z,47.21
2022-08-26T04:59:39.320Z,48.57
2022-08-26T05:01:11.074Z,48.71
2022-08-26T05:02:42.455Z,49.51
2022-08-26T05:04:16.154Z,50.94
2022-08-26T05:05:47.889Z,51.52
2022-08-26T05:07:19.451Z,51.88
2022-08-26T05:08:51.113Z,53.17
2022-08-26T05:10:24.364Z,55.24
2022-08-26T05:11:55.724Z,57.73
2022-08-26T05:13:27.180Z,58.77
2022-08-26T05:14:58.612Z,58.41
2022-08-26T05:16:30.081Z,60.70
2022-08-26T05:18:01.450Z,63.28
2022-08-26T05:19:32.841Z,61.60
2022-08-26T05:21:04.340Z,61.38
2022-08-26T05:22:36.033Z,63.62
2022-08-26T05:24:07.427Z,66.42
2022-08-26T05:25:38.821Z,66.28
2022-08-26T05:27:11.877Z,66.26
2022-08-26T05:28:43.938Z,66.91
2022-08-26T05:30:15.405Z,65.84
2022-08-26T05:31:47.134Z,64.69
2022-08-26T05:33:19.091Z,65.47
2022-08-26T05:34:51.424Z,65.62
2022-08-26T05:36:29.751Z,65.03
2022-08-26T05:38:01.821Z,65.72
2022-08-26T05:39:33.361Z,66.97
2022-08-26T05:41:05.710Z,68.94
2022-08-26T05:42:37.169Z,69.75
2022-08-26T05:44:10.650Z,69.45
2022-08-26T05:45:46.244Z,69.57
2022-08-26T05:47:17.947Z,69.49
2022-08-26T05:48:51.018Z,68.49
2022-08-26T05:50:23.778Z,69.14
2022-08-26T05:52:17.956Z,69.61
2022-08-26T05:53:54.917Z,69.88
2022-08-26T05:56:13.949Z,69.36
2022-08-26T05:57:45.636Z,68.16
2022-08-26T05:59:16.986Z,69.16
2022-08-26T06:00:55.594Z,70.16
2022-08-26T06:02:27.003Z,69.71
2022-08-26T06:03:59.754Z,68.61
2022-08-26T06:05:37.836Z,68.72
2022-08-26T06:07:11.664Z,68.00
2022-08-26T06:08:44.874Z,69.76
2022-08-26T06:10:31.451Z,69.12
2022-08-26T06:12:03.730Z,66.62
2022-08-26T06:13:35.264Z,68.19
2022-08-26T06:15:06.787Z,67.64
2022-08-26T06:16:38.349Z,67.61
2022-08-26T06:18:09.995Z,65.96
2022-08-26T06:19:41.613Z,67.73
2022-08-26T06:21:13.624Z,66.40
2022-08-26T06:22:45.201Z,67.04
2022-08-26T06:24:16.648Z,66.08
2022-08-26T06:25:49.078Z,65.18
2022-08-26T06:27:20.761Z,64.78
2022-08-26T06:28:52.408Z,65.13
2022-08-26T06:30:25.215Z,65.69
2022-08-26T06:31:56.927Z,66.80
2022-08-26T06:33:28.533Z,68.79
2022-08-26T06:35:00.138Z,67.70
2022-08-26T06:36:32.912Z,66.73
2022-08-26T06:38:04.588Z,67.45
2022-08-26T06:39:35.970Z,67.02
2022-08-26T06:41:12.668Z,66.94
2022-08-26T06:42:46.184Z,66.57
2022-08-26T06:44:17.630Z,66.78
2022-08-26T06:45:50.199Z,66.66
2022-08-26T06:47:21.706Z,66.71
2022-08-26T06:48:53.909Z,66.06
2022-08-26T06:50:25.302Z,64.60
2022-08-26T06:51:57.028Z,65.08
2022-08-26T06:53:29.585Z,65.19
2022-08-26T06:55:05.962Z,66.67
2022-08-26T06:56:37.433Z,65.28
2022-08-26T06:58:08.907Z,62.05
2022-08-26T06:59:40.336Z,61.24
2022-08-26T07:01:12.178Z,61.52
2022-08-26T07:02:46.890Z,60.58
2022-08-26T07:04:20.263Z,60.96
2022-08-26T07:05:54.015Z,59.60
2022-08-26T07:07:27.035Z,57.83
2022-08-26T07:09:03.814Z,58.70
2022-08-26T07:10:36.178Z,56.81
2022-08-26T07:12:07.642Z,57.02
2022-08-26T07:13:39.278Z,56.21
2022-08-26T07:15:12.348Z,56.36
2022-08-26T07:16:43.745Z,55.91
2022-08-26T07:18:15.192Z,54.52
2022-08-26T07:19:46.647Z,54.20
2022-08-26T07:21:18.260Z,54.22
2022-08-26T07:22:50.257Z,54.36
2022-08-26T07:24:21.800Z,53.30
2022-08-26T07:25:53.643Z,52.06
2022-08-26T07:27:27.243Z,54.29
2022-08-26T07:29:04.817Z,53.68
2022-08-26T07:30:36.271Z,54.19
2022-08-26T07:32:13.178Z,54.70
2022-08-26T07:33:44.695Z,54.36
2022-08-26T07:35:16.207Z,55.04
2022-08-26T07:36:48.188Z,54.39
2022-08-26T07:38:25.950Z,55.01
2022-08-26T07:39:57.462Z,55.54
2022-08-26T07:41:34.469Z,56.46
2022-08-26T07:43:05.982Z,54.96
2022-08-26T07:44:37.423Z,55.66
2022-08-26T07:46:11.282Z,55.34
2022-08-26T07:47:46.213Z,56.31
2022-08-26T07:49:22.930Z,55.24
2022-08-26T07:50:54.360Z,55.82
2022-08-26T07:52:27.336Z,56.23
2022-08-26T07:53:58.990Z,54.95
2022-08-26T07:55:30.370Z,54.15
2022-08-26T07:57:09.472Z,53.91
2022-08-26T07:58:41.714Z,55.45
2022-08-26T08:00:14.111Z,54.24
2022-08-26T08:01:46.237Z,53.93
2022-08-26T08:03:17.826Z,53.75
2022-08-26T08:04:49.596Z,52.75
2022-08-26T08:06:27.281Z,52.21
2022-08-26T08:08:17.293Z,51.33
2022-08-26T08:09:58.896Z,51.19
2022-08-26T08:11:30.352Z,50.27
2022-08-26T08:13:01.854Z,50.80
2022-08-26T08:14:34.430Z,49.95
2022-08-26T08:16:05.929Z,49.87
2022-08-26T08:17:37.375Z,49.48
2022-08-26T08:19:08.767Z,49.01
2022-08-26T08:20:42.287Z,49.02
2022-08-26T08:22:18.032Z,48.75
2022-08-26T08:23:51.485Z,48.82
2022-08-26T08:25:22.967Z,48.39
2022-08-26T08:26:54.399Z,48.74
2022-08-26T08:28:27.665Z,48.14
2022-08-26T08:29:59.358Z,47.61
2022-08-26T08:31:56.997Z,48.18
2022-08-26T08:33:29.735Z,48.53
2022-08-26T08:35:01.455Z,47.35
2022-08-26T08:36:42.244Z,48.34
2022-08-26T08:38:14.619Z,48.31
2022-08-26T08:39:46.183Z,48.31
2022-08-26T08:41:31.079Z,47.94
2022-08-26T08:43:08.433Z,47.89
2022-08-26T08:44:40.026Z,48.65
2022-08-26T08:46:11.841Z,48.75
2022-08-26T08:47:43.356Z,48.96
2022-08-26T08:49:14.814Z,49.25
2022-08-26T08:50:46.270Z,49.64
2022-08-26T08:52:17.719Z,51.08
2022-08-26T08:53:54.810Z,51.30
2022-08-26T08:55:26.552Z,50.43
2022-08-26T08:56:58.024Z,50.41
2022-08-26T08:58:31.268Z,49.00
2022-08-26T09:00:07.678Z,48.98
2022-08-26T09:01:44.353Z,49.23
2022-08-26T09:03:15.864Z,49.61
2022-08-26T09:04:47.459Z,49.00
2022-08-26T09:06:19.855Z,47.27
2022-08-26T09:07:51.325Z,46.12
2022-08-26T09:09:23.042Z,46.11
2022-08-26T09:10:54.994Z,45.19
2022-08-26T09:12:29.383Z,44.79
2022-08-26T09:14:01.558Z,45.17
2022-08-26T09:15:33.182Z,44.97
2022-08-26T09:17:04.666Z,44.96
2022-08-26T09:18:36.623Z,44.21
2022-08-26T09:20:13.449Z,43.28
2022-08-26T09:21:45.104Z,43.35
2022-08-26T09:23:26.484Z,43.31
2022-08-26T09:25:02.900Z,43.41
2022-08-26T09:26:39.412Z,43.65
2022-08-26T09:28:11.115Z,44.68
2022-08-26T09:29:44.792Z,44.48
2022-08-26T09:31:21.274Z,44.83
2022-08-26T09:32:56.059Z,42.40
2022-08-26T09:34:33.140Z,41.66
2022-08-26T09:36:04.777Z,40.59
2022-08-26T09:37:36.437Z,38.32
2022-08-26T09:39:13.024Z,36.40
2022-08-26T09:40:49.529Z,33.07
2022-08-26T09:42:30.674Z,31.43
2022-08-26T09:44:02.106Z,32.18
2022-08-26T09:45:33.691Z,31.66
2022-08-26T09:47:10.987Z,31.64
2022-08-26T09:48:42.597Z,32.14
2022-08-26T09:50:14.110Z,35.33
2022-08-26T09:51:45.749Z,35.34
2022-08-26T09:53:28.654Z,39.42
2022-08-26T09:55:01.929Z,39.58
2022-08-26T09:56:44.988Z,37.25
2022-08-26T09:58:16.385Z,36.80
2022-08-26T09:59:48.019Z,36.01
2022-08-26T10:01:19.641Z,36.34
2022-08-26T10:02:53.639Z,35.61
2022-08-26T10:04:26.694Z,34.58
2022-08-26T10:05:58.502Z,33.46
2022-08-26T10:07:30.112Z,33.23
2022-08-26T10:09:08.359Z,33.31
2022-08-26T10:10:41.732Z,31.42
2022-08-26T10:12:16.698Z,31.83
2022-08-26T10:13:48.369Z,31.85
2022-08-26T10:15:39.571Z,32.66
2022-08-26T10:17:11.027Z,32.34
2022-08-26T10:18:42.476Z,34.21
2022-08-26T10:20:22.685Z,34.14
2022-08-26T10:21:55.642Z,34.55
2022-08-26T10:23:27.170Z,31.38
2022-08-26T10:24:58.713Z,31.54
2022-08-26T10:26:30.153Z,31.28
2022-08-26T10:28:01.797Z,32.56
2022-08-26T10:29:33.371Z,35.64
2022-08-26T10:31:05.685Z,38.39
2022-08-26T10:32:37.388Z,37.51
2022-08-26T10:34:14.094Z,36.04
2022-08-26T10:35:45.694Z,35.40
2022-08-26T10:37:17.222Z,36.34
2022-08-26T10:38:49.353Z,33.79
2022-08-26T10:40:21.320Z,29.14
2022-08-26T10:41:52.810Z,26.71
2022-08-26T10:43:25.666Z,24.76
2022-08-26T10:44:58.711Z,22.01
2022-08-26T10:46:35.478Z,20.89
2022-08-26T10:48:13.583Z,19.37
2022-08-26T10:49:45.138Z,19.61
2022-08-26T10:51:17.214Z,20.83
2022-08-26T10:52:49.272Z,19.78
2022-08-26T10:54:20.956Z,18.96
2022-08-26T10:55:52.527Z,18.33
2022-08-26T10:57:24.186Z,17.81
2022-08-26T10:58:55.706Z,17.71
2022-08-26T11:00:27.543Z,17.23
2022-08-26T11:01:59.222Z,17.41
2022-08-26T11:03:35.433Z,17.74
2022-08-26T11:05:07.082Z,18.09
2022-08-26T11:06:40.423Z,17.41
2022-08-26T11:08:13.453Z,16.22
2022-08-26T11:09:45.252Z,15.60
2022-08-26T11:11:17.115Z,15.48
2022-08-26T11:12:51.206Z,15.47
2022-08-26T11:14:28.740Z,15.73
2022-08-26T11:16:01.732Z,16.30
2022-08-26T11:17:33.359Z,16.37
2022-08-26T11:19:04.965Z,15.37
2022-08-26T11:20:36.555Z,14.79
2022-08-26T11:22:08.600Z,13.92
2022-08-26T11:23:41.691Z,13.77
2022-08-26T11:25:13.179Z,14.16
2022-08-26T11:26:55.549Z,14.34
2022-08-26T11:28:28.298Z,14.57
2022-08-26T11:30:00.571Z,14.34
2022-08-26T11:31:32.529Z,13.66
2022-08-26T11:33:04.250Z,13.52
2022-08-26T11:34:36.331Z,12.70
2022-08-26T11:36:12.133Z,12.26
2022-08-26T11:37:43.984Z,12.30
2022-08-26T11:39:15.612Z,12.06
2022-08-26T11:40:47.176Z,11.10
2022-08-26T11:42:20.265Z,11.09
2022-08-26T11:43:51.970Z,10.82
2022-08-26T11:45:23.779Z,10.59
2022-08-26T11:46:55.433Z,10.25
2022-08-26T11:48:26.982Z,10.33
2022-08-26T11:49:58.711Z,10.07
2022-08-26T11:51:30.342Z,11.19
2022-08-26T11:53:03.392Z,11.76
2022-08-26T11:54:35.657Z,11.80
2022-08-26T11:56:07.478Z,12.05
2022-08-26T11:57:39.061Z,12.39
2022-08-26T11:59:15.482Z,12.64
2022-08-26T12:00:47.244Z,13.37
2022-08-26T12:02:19.062Z,13.76
2022-08-26T12:03:50.726Z,14.44
2022-08-26T12:05:22.387Z,13.87
2022-08-26T12:06:55.679Z,13.92
2022-08-26T12:08:27.886Z,13.64
2022-08-26T12:10:00.518Z,13.19
2022-08-26T12:11:33.715Z,12.96
2022-08-26T12:13:05.494Z,13.98
2022-08-26T12:14:37.289Z,13.03
2022-08-26T12:16:11.456Z,13.08
2022-08-26T12:17:42.992Z,13.29
2022-08-26T12:19:14.739Z,13.42
2022-08-26T12:20:46.237Z,12.78
2022-08-26T12:22:17.955Z,12.97
2022-08-26T12:23:52.361Z,12.95
2022-08-26T12:25:23.830Z,12.80
2022-08-26T12:26:55.975Z,13.15
2022-08-26T12:28:28.616Z,12.39
2022-08-26T12:30:00.291Z,12.12
2022-08-26T12:31:33.223Z,11.64
2022-08-26T12:33:08.058Z,12.77
2022-08-26T12:34:54.350Z,12.37
2022-08-26T12:36:25.996Z,12.68
2022-08-26T12:37:57.748Z,13.13
2022-08-26T12:39:29.303Z,12.30
2022-08-26T12:41:05.973Z,12.28
2022-08-26T12:42:37.550Z,12.10
2022-08-26T12:44:09.142Z,12.17
2022-08-26T12:45:40.669Z,12.15
2022-08-26T12:47:12.372Z,11.38
2022-08-26T12:48:43.947Z,11.70
2022-08-26T12:50:15.863Z,11.87
2022-08-26T12:51:47.318Z,12.50
2022-08-26T12:53:18.995Z,12.24
2022-08-26T12:54:56.948Z,11.83
2022-08-26T12:56:28.704Z,11.76
2022-08-26T12:58:01.156Z,11.71
2022-08-26T12:59:32.651Z,12.05
2022-08-26T13:01:04.483Z,11.71
2022-08-26T13:02:36.143Z,12.16
2022-08-26T13:04:07.724Z,11.51
2022-08-26T13:05:39.346Z,11.51
2022-08-26T13:07:10.828Z,10.96
2022-08-26T13:08:42.748Z,10.25
2022-08-26T13:10:14.161Z,10.47
2022-08-26T13:11:45.641Z,9.85
2022-08-26T13:13:17.162Z,9.75
2022-08-26T13:14:48.674Z,9.50
2022-08-26T13:16:20.158Z,9.59
2022-08-26T13:17:51.733Z,8.96
2022-08-26T13:19:23.217Z,8.84
2022-08-26T13:20:54.686Z,8.75
2022-08-26T13:22:26.270Z,8.19
2022-08-26T13:23:58.400Z,8.11
2022-08-26T13:25:29.989Z,8.18
2022-08-26T13:27:01.487Z,8.38
2022-08-26T13:28:33.004Z,8.27
2022-08-26T13:30:04.694Z,8.12
2022-08-26T13:31:36.359Z,7.61
2022-08-26T13:33:09.246Z,7.56
2022-08-26T13:34:46.207Z,7.27
2022-08-26T13:36:21.113Z,7.49
2022-08-26T13:37:52.587Z,7.70
2022-08-26T13:39:29.112Z,7.38
2022-08-26T13:41:00.644Z,7.17
2022-08-26T13:42:32.108Z,7.18
2022-08-26T13:44:03.718Z,7.03
2022-08-26T13:45:36.323Z,7.26
2022-08-26T13:47:07.978Z,6.79
2022-08-26T13:48:39.706Z,7.02
2022-08-26T13:50:14.871Z,6.71
2022-08-26T13:51:46.371Z,6.59
2022-08-26T13:53:18.088Z,6.53
2022-08-26T13:54:49.577Z,7.06
2022-08-26T13:56:21.185Z,6.71
2022-08-26T13:57:52.805Z,6.40
2022-08-26T13:59:24.671Z,6.16
2022-08-26T14:00:56.461Z,6.28
2022-08-26T14:02:28.146Z,5.90
2022-08-26T14:03:59.921Z,6.38
2022-08-26T14:05:31.534Z,5.66
2022-08-26T14:07:03.049Z,5.87
2022-08-26T14:08:34.800Z,5.34
2022-08-26T14:10:07.494Z,5.56
2022-08-26T14:11:50.891Z,5.02
2022-08-26T14:13:26.106Z,4.94
2022-08-26T14:14:57.902Z,5.05
2022-08-26T14:16:29.553Z,5.57
2022-08-26T14:18:11.196Z,4.80
2022-08-26T14:19:43.097Z,5.07
2022-08-26T14:21:14.699Z,4.94
2022-08-26T14:23:03.550Z,4.32
2022-08-26T14:24:44.554Z,4.53
2022-08-26T14:26:28.799Z,4.42
2022-08-26T14:28:02.455Z,4.57
2022-08-26T14:29:38.958Z,4.86
2022-08-26T14:31:10.478Z,4.39
2022-08-26T14:32:42.189Z,4.43
2022-08-26T14:34:13.610Z,4.48
2022-08-26T14:35:47.940Z,4.70
2022-08-26T14:37:21.486Z,4.38
2022-08-26T14:38:53.132Z,4.44
2022-08-26T14:40:24.816Z,5.00
2022-08-26T14:41:56.303Z,4.29
2022-08-26T14:43:32.904Z,4.66
2022-08-26T14:45:04.547Z,4.68
2022-08-26T14:46:36.372Z,4.66
2022-08-26T14:48:08.507Z,4.41
2022-08-26T14:49:45.140Z,4.90
2022-08-26T14:51:17.929Z,4.67
2022-08-26T14:52:49.768Z,4.83
2022-08-26T14:54:26.330Z,4.82
2022-08-26T14:55:58.984Z,4.82
2022-08-26T14:57:30.928Z,4.74
2022-08-26T14:59:02.465Z,4.92
2022-08-26T15:00:33.994Z,5.20
2022-08-26T15:02:05.699Z,4.63
2022-08-26T15:03:37.457Z,4.96
2022-08-26T15:05:09.179Z,4.76
2022-08-26T15:06:42.323Z,5.03
2022-08-26T15:08:13.765Z,5.19
2022-08-26T15:09:50.673Z,5.02
2022-08-26T15:13:37.643Z,5.54
2022-08-26T15:15:09.229Z,5.46
2022-08-26T15:16:40.703Z,5.16
2022-08-26T15:18:12.582Z,5.66
2022-08-26T15:19:44.189Z,5.06
2022-08-26T15:21:16.238Z,4.44
2022-08-26T15:22:47.712Z,4.89
2022-08-26T15:24:19.239Z,4.37
2022-08-26T15:25:50.829Z,4.21
2022-08-26T15:27:22.333Z,4.17
2022-08-26T15:28:53.782Z,4.31
2022-08-26T15:30:25.404Z,3.99
2022-08-26T15:31:57.485Z,3.88
2022-08-26T15:33:29.156Z,3.98
2022-08-26T15:35:00.641Z,4.15
2022-08-26T15:36:32.154Z,3.80
2022-08-26T15:38:03.802Z,4.02
2022-08-26T15:39:35.294Z,3.87
2022-08-26T15:41:06.700Z,3.70
2022-08-26T15:42:38.182Z,3.28
2022-08-26T15:44:09.959Z,3.79
2022-08-26T15:45:41.418Z,3.70
2022-08-26T15:47:13.227Z,3.57
2022-08-26T15:48:44.672Z,3.60
2022-08-26T15:50:16.250Z,3.50
2022-08-26T15:51:47.988Z,3.69
2022-08-26T15:53:19.472Z,3.61
2022-08-26T15:54:51.099Z,3.64
2022-08-26T15:56:22.649Z,3.46
2022-08-26T15:57:54.252Z,3.42
2022-08-26T15:59:26.395Z,3.44
2022-08-26T16:00:57.881Z,3.74
2022-08-26T16:02:32.341Z,3.37
2022-08-26T16:04:04.078Z,3.73
2022-08-26T16:05:35.761Z,3.92
2022-08-26T16:07:12.305Z,3.36
2022-08-26T16:10:56.287Z,3.92
2022-08-26T16:12:27.770Z,3.86
2022-08-26T16:13:59.239Z,3.52
2022-08-26T16:15:30.688Z,3.51
2022-08-26T16:17:02.132Z,3.92
2022-08-26T16:18:33.650Z,3.30
2022-08-26T16:20:05.224Z,3.70
2022-08-26T16:21:36.689Z,3.69
2022-08-26T16:23:08.379Z,3.80
2022-08-26T16:24:40.064Z,3.73
2022-08-26T16:26:11.552Z,3.96
2022-08-26T16:27:43.369Z,4.25
2022-08-26T16:29:14.780Z,3.96
2022-08-26T16:30:46.451Z,3.68
2022-08-26T16:32:18.048Z,3.86
2022-08-26T16:33:49.559Z,4.10
2022-08-26T16:35:21.098Z,4.11
2022-08-26T16:36:52.516Z,3.63
2022-08-26T16:38:23.920Z,3.70
2022-08-26T16:39:55.473Z,3.76
2022-08-26T16:41:31.962Z,3.70
2022-08-26T16:43:03.369Z,4.02
2022-08-26T16:44:34.968Z,4.08
2022-08-26T16:46:06.626Z,3.90
2022-08-26T16:47:38.113Z,3.92
2022-08-26T16:49:09.564Z,3.58
2022-08-26T16:50:41.069Z,3.81
2022-08-26T16:52:17.490Z,3.80
2022-08-26T16:53:49.058Z,3.71
2022-08-26T16:55:20.833Z,3.60
2022-08-26T16:56:53.466Z,3.74
2022-08-26T16:58:25.867Z,4.06
2022-08-26T16:59:57.536Z,3.52
2022-08-26T17:01:29.140Z,3.77
2022-08-26T17:03:00.739Z,3.57
2022-08-26T17:04:32.271Z,3.79
2022-08-26T17:06:03.692Z,4.02
2022-08-26T17:07:35.183Z,4.04
2022-08-26T17:09:06.551Z,3.91
2022-08-26T17:10:37.996Z,3.89
2022-08-26T17:12:14.587Z,3.99
2022-08-26T17:13:46.049Z,3.69
2022-08-26T17:15:17.658Z,3.77
2022-08-26T17:16:49.235Z,3.66
2022-08-26T17:18:20.644Z,3.82
2022-08-26T17:19:52.220Z,3.66
2022-08-26T17:21:23.644Z,3.55
2022-08-26T17:22:55.165Z,3.41
2022-08-26T17:24:26.631Z,3.67
2022-08-26T17:25:58.145Z,3.96
2022-08-26T17:27:30.619Z,3.81
2022-08-26T17:29:02.096Z,3.94
2022-08-26T17:30:33.620Z,3.65
2022-08-26T17:32:05.482Z,3.57
2022-08-26T17:33:37.021Z,3.38
2022-08-26T17:35:10.047Z,3.22
2022-08-26T17:36:44.635Z,3.36
2022-08-26T17:38:16.226Z,3.58
2022-08-26T17:39:47.945Z,3.55
2022-08-26T17:41:19.755Z,3.38
2022-08-26T17:42:51.240Z,3.63
2022-08-26T17:44:22.757Z,3.57
2022-08-26T17:46:00.063Z,3.34
2022-08-26T17:47:38.988Z,3.78
2022-08-26T17:49:10.416Z,3.45
2022-08-26T17:50:41.986Z,3.25
2022-08-26T17:52:13.463Z,3.44
2022-08-26T17:53:44.984Z,3.53
2022-08-26T17:55:37.467Z,3.10
2022-08-26T17:57:24.240Z,3.05
2022-08-26T17:59:34.679Z,3.10
2022-08-26T18:01:06.478Z,2.98
2022-08-26T18:02:38.113Z,2.98
2022-08-26T18:04:09.612Z,3.06
2022-08-26T18:05:41.166Z,3.19
2022-08-26T18:07:12.731Z,3.29
2022-08-26T18:08:44.285Z,3.16
2022-08-26T18:10:21.479Z,3.26
2022-08-26T18:12:04.269Z,3.24
2022-08-26T18:13:35.761Z,3.27
2022-08-26T18:15:17.233Z,3.02
2022-08-26T18:16:49.653Z,2.97
2022-08-26T18:18:21.224Z,2.90
2022-08-26T18:19:52.726Z,2.87
2022-08-26T18:21:24.354Z,3.34
2022-08-26T18:22:55.845Z,3.00
2022-08-26T18:24:27.296Z,3.11
2022-08-26T18:28:11.259Z,2.95
2022-08-26T18:30:10.511Z,2.86
2022-08-26T18:32:03.912Z,2.91
2022-08-26T18:33:35.378Z,2.84
2022-08-26T18:35:06.762Z,3.02
2022-08-26T18:36:38.293Z,2.95
2022-08-26T18:38:11.240Z,3.14
2022-08-26T18:39:43.391Z,2.97
2022-08-26T18:41:32.185Z,2.87
2022-08-26T18:43:03.677Z,2.79
2022-08-26T18:44:35.349Z,2.73
2022-08-26T18:46:06.997Z,2.90
2022-08-26T18:47:38.511Z,2.76
2022-08-26T18:49:10.299Z,2.76
2022-08-26T18:50:45.813Z,2.57
2022-08-26T18:52:23.789Z,2.72
2022-08-26T18:54:05.759Z,2.54
2022-08-26T18:55:37.545Z,2.91
2022-08-26T18:57:09.073Z,2.72
2022-08-26T18:58:40.528Z,2.71
2022-08-26T19:00:12.204Z,2.74
2022-08-26T19:01:50.819Z,2.47
2022-08-26T19:03:22.655Z,2.66
2022-08-26T19:04:54.468Z,3.04
2022-08-26T19:06:26.220Z,2.71
2022-08-26T19:07:57.728Z,2.54
2022-08-26T19:09:34.389Z,2.46
2022-08-26T19:11:12.737Z,2.56
2022-08-26T19:12:45.693Z,2.34
2022-08-26T19:14:23.298Z,2.53
2022-08-26T19:15:54.683Z,2.41
2022-08-26T19:17:26.178Z,2.85
2022-08-26T19:18:57.641Z,2.29
2022-08-26T19:20:29.056Z,2.19
2022-08-26T19:22:00.588Z,2.41
2022-08-26T19:23:32.646Z,1.98
2022-08-26T19:26:06.202Z,1.97
2022-08-26T19:27:37.704Z,2.12
2022-08-26T19:29:09.533Z,1.94
2022-08-26T19:30:41.099Z,1.76
2022-08-26T19:32:12.681Z,1.75
2022-08-26T19:33:44.149Z,1.83
2022-08-26T19:35:15.922Z,1.99
2022-08-26T19:36:47.455Z,2.10
2022-08-26T19:38:18.956Z,1.99
2022-08-26T19:39:50.496Z,1.90
2022-08-26T19:41:24.494Z,1.68
2022-08-26T19:42:58.545Z,1.66
2022-08-26T19:44:30.021Z,1.82
2022-08-26T19:46:01.674Z,1.83
2022-08-26T19:47:33.202Z,2.05
2022-08-26T19:49:04.635Z,1.99
2022-08-26T19:50:36.175Z,2.07
2022-08-26T19:52:07.664Z,1.99
2022-08-26T19:53:39.082Z,2.20
2022-08-26T19:55:13.022Z,1.91
2022-08-26T19:56:49.170Z,1.72
2022-08-26T19:58:26.293Z,1.78
2022-08-26T19:59:57.889Z,1.72
2022-08-26T20:01:29.522Z,1.70
2022-08-26T20:03:07.217Z,1.86
2022-08-26T20:04:42.345Z,2.12
2022-08-26T20:06:13.981Z,1.95
2022-08-26T20:07:45.402Z,2.00
2022-08-26T20:09:16.934Z,1.81
2022-08-26T20:10:48.594Z,1.72
2022-08-26T20:12:20.139Z,2.22
2022-08-26T20:13:51.675Z,1.86
2022-08-26T20:15:23.360Z,2.01
2022-08-26T20:16:55.139Z,2.06
2022-08-26T20:18:26.796Z,2.05
2022-08-26T20:19:58.230Z,2.13
2022-08-26T20:21:29.881Z,2.09
2022-08-26T20:23:01.362Z,1.94
2022-08-26T20:24:33.069Z,2.10
2022-08-26T20:26:04.612Z,2.12
2022-08-26T20:27:38.130Z,2.01
2022-08-26T20:29:09.988Z,2.06
2022-08-26T20:30:41.616Z,2.02
2022-08-26T20:32:13.201Z,2.22